sensor_id;sensor_type;location;lat;lon;timestamp;P1;durP1;ratioP1;P2;durP2;ratioP2
8007;SDS011;4049;49.468;11.200;2022-11-10T00:01:02;3.73;;;2.40;;
8007;SDS011;4049;49.468;11.200;2022-11-10T00:03:29;4.27;;;2.80;;
8007;SDS011;4049;49.468;11.200;2022-11-10T00:05:56;3.07;;;2.23;;
8007;SDS011;4049;49.468;11.200;2022-11-10T00:08:23;3.53;;;2.30;;
8007;SDS011;4049;49.468;11.200;2022-11-10T00:10:49;2.57;;;2.10;;
8007;SDS011;4049;49.468;11.200;2022-11-10T00:13:30;3.97;;;2.40;;
8007;SDS011;4049;49.468;11.200;2022-11-10T00:15:59;3.43;;;2.43;;
8007;SDS011;4049;49.468;11.200;2022-11-10T00:18:43;3.20;;;2.17;;
8007;SDS011;4049;49.468;11.200;2022-11-10T00:21:11;6.07;;;2.20;;
8007;SDS011;4049;49.468;11.200;2022-11-10T00:23:38;5.13;;;2.10;;
8007;SDS011;4049;49.468;11.200;2022-11-10T00:26:09;2.30;;;1.97;;
8007;SDS011;4049;49.468;11.200;2022-11-10T00:28:39;5.03;;;2.10;;
8007;SDS011;4049;49.468;11.200;2022-11-10T00:31:06;3.30;;;2.10;;
8007;SDS011;4049;49.468;11.200;2022-11-10T00:33:34;4.03;;;2.13;;
8007;SDS011;4049;49.468;11.200;2022-11-10T00:36:01;4.70;;;2.10;;
8007;SDS011;4049;49.468;11.200;2022-11-10T00:38:29;2.23;;;2.03;;
8007;SDS011;4049;49.468;11.200;2022-11-10T00:40:56;3.80;;;2.30;;
8007;SDS011;4049;49.468;11.200;2022-11-10T00:43:23;2.83;;;1.97;;
8007;SDS011;4049;49.468;11.200;2022-11-10T00:45:51;3.30;;;2.07;;
8007;SDS011;4049;49.468;11.200;2022-11-10T00:48:19;7.67;;;2.30;;
8007;SDS011;4049;49.468;11.200;2022-11-10T00:50:45;3.17;;;2.17;;
8007;SDS011;4049;49.468;11.200;2022-11-10T00:53:12;2.60;;;1.63;;
8007;SDS011;4049;49.468;11.200;2022-11-10T00:55:40;3.80;;;2.10;;
8007;SDS011;4049;49.468;11.200;2022-11-10T00:58:07;3.83;;;1.97;;
8007;SDS011;4049;49.468;11.200;2022-11-10T01:00:33;3.63;;;2.23;;
8007;SDS011;4049;49.468;11.200;2022-11-10T01:03:02;2.23;;;1.80;;
8007;SDS011;4049;49.468;11.200;2022-11-10T01:05:29;4.80;;;2.27;;
8007;SDS011;4049;49.468;11.200;2022-11-10T01:07:56;4.13;;;2.37;;
8007;SDS011;4049;49.468;11.200;2022-11-10T01:10:23;3.63;;;2.20;;
8007;SDS011;4049;49.468;11.200;2022-11-10T01:12:50;3.70;;;2.23;;
8007;SDS011;4049;49.468;11.200;2022-11-10T01:15:17;4.07;;;2.00;;
8007;SDS011;4049;49.468;11.200;2022-11-10T01:17:44;7.43;;;2.40;;
8007;SDS011;4049;49.468;11.200;2022-11-10T01:22:41;4.27;;;2.27;;
8007;SDS011;4049;49.468;11.200;2022-11-10T01:25:08;3.17;;;2.17;;
8007;SDS011;4049;49.468;11.200;2022-11-10T01:27:34;2.93;;;2.63;;
8007;SDS011;4049;49.468;11.200;2022-11-10T01:30:01;3.90;;;2.47;;
8007;SDS011;4049;49.468;11.200;2022-11-10T01:32:29;3.63;;;2.63;;
8007;SDS011;4049;49.468;11.200;2022-11-10T01:34:56;3.27;;;2.57;;
8007;SDS011;4049;49.468;11.200;2022-11-10T01:37:24;2.63;;;2.40;;
8007;SDS011;4049;49.468;11.200;2022-11-10T01:39:51;5.00;;;2.43;;
8007;SDS011;4049;49.468;11.200;2022-11-10T01:42:21;3.13;;;2.43;;
8007;SDS011;4049;49.468;11.200;2022-11-10T01:48:05;4.20;;;2.63;;
8007;SDS011;4049;49.468;11.200;2022-11-10T01:50:35;7.70;;;3.67;;
8007;SDS011;4049;49.468;11.200;2022-11-10T01:53:09;9.13;;;4.10;;
8007;SDS011;4049;49.468;11.200;2022-11-10T01:55:42;8.40;;;3.93;;
8007;SDS011;4049;49.468;11.200;2022-11-10T01:58:11;4.40;;;2.70;;
8007;SDS011;4049;49.468;11.200;2022-11-10T02:00:40;4.37;;;2.57;;
8007;SDS011;4049;49.468;11.200;2022-11-10T02:03:08;5.03;;;2.40;;
8007;SDS011;4049;49.468;11.200;2022-11-10T02:05:39;4.10;;;2.57;;
8007;SDS011;4049;49.468;11.200;2022-11-10T02:08:08;5.27;;;3.30;;
8007;SDS011;4049;49.468;11.200;2022-11-10T02:10:37;3.57;;;2.60;;
8007;SDS011;4049;49.468;11.200;2022-11-10T02:13:04;5.13;;;3.20;;
8007;SDS011;4049;49.468;11.200;2022-11-10T02:15:31;4.27;;;2.83;;
8007;SDS011;4049;49.468;11.200;2022-11-10T02:17:58;8.20;;;4.40;;
8007;SDS011;4049;49.468;11.200;2022-11-10T02:20:27;6.57;;;4.10;;
8007;SDS011;4049;49.468;11.200;2022-11-10T02:22:55;5.40;;;4.07;;
8007;SDS011;4049;49.468;11.200;2022-11-10T02:25:21;5.17;;;3.80;;
8007;SDS011;4049;49.468;11.200;2022-11-10T02:27:50;4.63;;;3.10;;
8007;SDS011;4049;49.468;11.200;2022-11-10T02:30:17;3.67;;;2.67;;
8007;SDS011;4049;49.468;11.200;2022-11-10T02:32:44;3.93;;;2.50;;
8007;SDS011;4049;49.468;11.200;2022-11-10T02:35:11;3.83;;;2.60;;
8007;SDS011;4049;49.468;11.200;2022-11-10T02:37:37;3.37;;;2.30;;
8007;SDS011;4049;49.468;11.200;2022-11-10T02:40:06;4.97;;;2.80;;
8007;SDS011;4049;49.468;11.200;2022-11-10T02:42:34;4.67;;;2.57;;
8007;SDS011;4049;49.468;11.200;2022-11-10T02:45:01;4.80;;;2.23;;
8007;SDS011;4049;49.468;11.200;2022-11-10T02:47:28;3.87;;;2.60;;
8007;SDS011;4049;49.468;11.200;2022-11-10T02:49:55;3.73;;;2.70;;
8007;SDS011;4049;49.468;11.200;2022-11-10T02:52:22;5.70;;;2.87;;
8007;SDS011;4049;49.468;11.200;2022-11-10T02:54:49;4.60;;;2.70;;
8007;SDS011;4049;49.468;11.200;2022-11-10T02:57:17;4.23;;;2.10;;
8007;SDS011;4049;49.468;11.200;2022-11-10T02:59:43;5.50;;;2.40;;
8007;SDS011;4049;49.468;11.200;2022-11-10T03:02:10;2.83;;;2.27;;
8007;SDS011;4049;49.468;11.200;2022-11-10T03:04:38;2.60;;;2.40;;
8007;SDS011;4049;49.468;11.200;2022-11-10T03:07:04;3.30;;;2.30;;
8007;SDS011;4049;49.468;11.200;2022-11-10T03:09:31;2.83;;;2.10;;
8007;SDS011;4049;49.468;11.200;2022-11-10T03:11:58;2.67;;;2.27;;
8007;SDS011;4049;49.468;11.200;2022-11-10T03:14:26;3.83;;;2.50;;
8007;SDS011;4049;49.468;11.200;2022-11-10T03:16:53;6.00;;;2.50;;
8007;SDS011;4049;49.468;11.200;2022-11-10T03:19:19;3.67;;;2.40;;
8007;SDS011;4049;49.468;11.200;2022-11-10T03:21:46;5.43;;;2.60;;
8007;SDS011;4049;49.468;11.200;2022-11-10T03:24:13;5.70;;;2.90;;
8007;SDS011;4049;49.468;11.200;2022-11-10T03:26:40;4.17;;;2.50;;
8007;SDS011;4049;49.468;11.200;2022-11-10T03:29:07;6.50;;;2.50;;
8007;SDS011;4049;49.468;11.200;2022-11-10T03:31:35;2.60;;;2.40;;
8007;SDS011;4049;49.468;11.200;2022-11-10T03:34:02;3.80;;;2.20;;
8007;SDS011;4049;49.468;11.200;2022-11-10T03:36:29;4.23;;;2.10;;
8007;SDS011;4049;49.468;11.200;2022-11-10T03:38:55;4.30;;;2.57;;
8007;SDS011;4049;49.468;11.200;2022-11-10T03:41:22;3.57;;;2.23;;
8007;SDS011;4049;49.468;11.200;2022-11-10T03:43:49;3.63;;;2.30;;
8007;SDS011;4049;49.468;11.200;2022-11-10T03:46:16;5.03;;;2.20;;
8007;SDS011;4049;49.468;11.200;2022-11-10T03:48:44;3.03;;;1.90;;
8007;SDS011;4049;49.468;11.200;2022-11-10T03:51:11;4.83;;;2.10;;
8007;SDS011;4049;49.468;11.200;2022-11-10T03:53:38;3.37;;;2.43;;
8007;SDS011;4049;49.468;11.200;2022-11-10T03:56:05;4.13;;;2.97;;
8007;SDS011;4049;49.468;11.200;2022-11-10T03:58:32;3.07;;;2.17;;
8007;SDS011;4049;49.468;11.200;2022-11-10T04:00:59;4.10;;;2.20;;
8007;SDS011;4049;49.468;11.200;2022-11-10T04:03:26;2.20;;;1.97;;
8007;SDS011;4049;49.468;11.200;2022-11-10T04:05:54;4.03;;;2.00;;
8007;SDS011;4049;49.468;11.200;2022-11-10T04:08:44;3.17;;;2.10;;
8007;SDS011;4049;49.468;11.200;2022-11-10T04:11:26;2.27;;;2.00;;
8007;SDS011;4049;49.468;11.200;2022-11-10T04:14:12;2.57;;;2.03;;
8007;SDS011;4049;49.468;11.200;2022-11-10T04:16:56;2.80;;;2.20;;
8007;SDS011;4049;49.468;11.200;2022-11-10T04:19:23;3.27;;;2.20;;
8007;SDS011;4049;49.468;11.200;2022-11-10T04:21:52;3.93;;;2.17;;
8007;SDS011;4049;49.468;11.200;2022-11-10T04:24:18;3.10;;;2.50;;
8007;SDS011;4049;49.468;11.200;2022-11-10T04:26:46;2.43;;;2.10;;
8007;SDS011;4049;49.468;11.200;2022-11-10T04:29:14;2.57;;;1.93;;
8007;SDS011;4049;49.468;11.200;2022-11-10T04:31:42;5.50;;;2.47;;
8007;SDS011;4049;49.468;11.200;2022-11-10T04:34:10;2.33;;;2.00;;
8007;SDS011;4049;49.468;11.200;2022-11-10T04:36:38;3.53;;;2.20;;
8007;SDS011;4049;49.468;11.200;2022-11-10T04:39:08;3.17;;;2.00;;
8007;SDS011;4049;49.468;11.200;2022-11-10T04:41:35;3.03;;;2.30;;
8007;SDS011;4049;49.468;11.200;2022-11-10T04:44:02;2.33;;;2.10;;
8007;SDS011;4049;49.468;11.200;2022-11-10T04:46:30;3.23;;;2.50;;
8007;SDS011;4049;49.468;11.200;2022-11-10T04:48:58;5.30;;;2.90;;
8007;SDS011;4049;49.468;11.200;2022-11-10T04:51:26;6.47;;;2.30;;
8007;SDS011;4049;49.468;11.200;2022-11-10T04:53:54;3.47;;;2.30;;
8007;SDS011;4049;49.468;11.200;2022-11-10T04:56:22;3.27;;;2.33;;
8007;SDS011;4049;49.468;11.200;2022-11-10T04:58:50;2.53;;;2.10;;
8007;SDS011;4049;49.468;11.200;2022-11-10T05:01:17;3.13;;;2.27;;
8007;SDS011;4049;49.468;11.200;2022-11-10T05:03:46;4.90;;;2.17;;
8007;SDS011;4049;49.468;11.200;2022-11-10T05:06:13;3.13;;;2.27;;
8007;SDS011;4049;49.468;11.200;2022-11-10T05:08:41;4.00;;;2.17;;
8007;SDS011;4049;49.468;11.200;2022-11-10T05:11:08;3.43;;;2.40;;
8007;SDS011;4049;49.468;11.200;2022-11-10T05:13:37;2.73;;;2.20;;
8007;SDS011;4049;49.468;11.200;2022-11-10T05:16:04;3.43;;;2.53;;
8007;SDS011;4049;49.468;11.200;2022-11-10T05:18:32;2.63;;;2.30;;
8007;SDS011;4049;49.468;11.200;2022-11-10T05:20:59;3.93;;;2.10;;
8007;SDS011;4049;49.468;11.200;2022-11-10T05:23:26;4.97;;;2.70;;
8007;SDS011;4049;49.468;11.200;2022-11-10T05:26:06;5.50;;;2.73;;
8007;SDS011;4049;49.468;11.200;2022-11-10T05:28:36;4.87;;;2.90;;
8007;SDS011;4049;49.468;11.200;2022-11-10T05:31:03;3.83;;;2.57;;
8007;SDS011;4049;49.468;11.200;2022-11-10T05:33:31;6.13;;;3.00;;
8007;SDS011;4049;49.468;11.200;2022-11-10T05:35:58;3.30;;;3.00;;
8007;SDS011;4049;49.468;11.200;2022-11-10T05:38:25;3.23;;;2.70;;
8007;SDS011;4049;49.468;11.200;2022-11-10T05:40:52;4.43;;;2.70;;
8007;SDS011;4049;49.468;11.200;2022-11-10T05:43:19;5.80;;;2.80;;
8007;SDS011;4049;49.468;11.200;2022-11-10T05:45:48;3.70;;;2.67;;
8007;SDS011;4049;49.468;11.200;2022-11-10T05:48:15;4.30;;;2.40;;
8007;SDS011;4049;49.468;11.200;2022-11-10T05:50:42;3.20;;;2.43;;
8007;SDS011;4049;49.468;11.200;2022-11-10T05:53:09;4.27;;;2.83;;
8007;SDS011;4049;49.468;11.200;2022-11-10T05:55:36;3.77;;;2.40;;
8007;SDS011;4049;49.468;11.200;2022-11-10T05:58:03;3.60;;;2.90;;
8007;SDS011;4049;49.468;11.200;2022-11-10T06:00:30;7.80;;;2.47;;
8007;SDS011;4049;49.468;11.200;2022-11-10T06:03:00;5.00;;;2.80;;
8007;SDS011;4049;49.468;11.200;2022-11-10T06:05:28;3.63;;;2.70;;
8007;SDS011;4049;49.468;11.200;2022-11-10T06:07:55;5.87;;;2.50;;
8007;SDS011;4049;49.468;11.200;2022-11-10T06:10:22;3.60;;;2.80;;
8007;SDS011;4049;49.468;11.200;2022-11-10T06:12:50;4.00;;;2.73;;
8007;SDS011;4049;49.468;11.200;2022-11-10T06:15:17;4.53;;;2.87;;
8007;SDS011;4049;49.468;11.200;2022-11-10T06:17:43;5.30;;;2.73;;
8007;SDS011;4049;49.468;11.200;2022-11-10T06:20:12;5.23;;;2.87;;
8007;SDS011;4049;49.468;11.200;2022-11-10T06:22:41;6.17;;;2.87;;
8007;SDS011;4049;49.468;11.200;2022-11-10T06:25:08;3.63;;;3.17;;
8007;SDS011;4049;49.468;11.200;2022-11-10T06:27:35;4.27;;;3.30;;
8007;SDS011;4049;49.468;11.200;2022-11-10T06:30:03;3.50;;;2.97;;
8007;SDS011;4049;49.468;11.200;2022-11-10T06:32:32;4.53;;;3.20;;
8007;SDS011;4049;49.468;11.200;2022-11-10T06:34:59;5.57;;;3.07;;
8007;SDS011;4049;49.468;11.200;2022-11-10T06:37:27;5.47;;;3.53;;
8007;SDS011;4049;49.468;11.200;2022-11-10T06:39:54;5.03;;;3.43;;
8007;SDS011;4049;49.468;11.200;2022-11-10T06:42:21;7.37;;;4.20;;
8007;SDS011;4049;49.468;11.200;2022-11-10T06:44:47;5.73;;;3.97;;
8007;SDS011;4049;49.468;11.200;2022-11-10T06:47:14;7.57;;;4.40;;
8007;SDS011;4049;49.468;11.200;2022-11-10T06:49:41;9.10;;;5.13;;
8007;SDS011;4049;49.468;11.200;2022-11-10T06:52:08;7.27;;;4.80;;
8007;SDS011;4049;49.468;11.200;2022-11-10T06:54:36;7.77;;;4.03;;
8007;SDS011;4049;49.468;11.200;2022-11-10T06:57:03;7.20;;;4.40;;
8007;SDS011;4049;49.468;11.200;2022-11-10T06:59:29;6.90;;;3.63;;
8007;SDS011;4049;49.468;11.200;2022-11-10T07:01:56;7.70;;;3.90;;
8007;SDS011;4049;49.468;11.200;2022-11-10T07:04:23;7.83;;;3.80;;
8007;SDS011;4049;49.468;11.200;2022-11-10T07:06:50;5.30;;;4.07;;
8007;SDS011;4049;49.468;11.200;2022-11-10T07:09:17;6.63;;;3.90;;
8007;SDS011;4049;49.468;11.200;2022-11-10T07:11:45;6.90;;;4.50;;
8007;SDS011;4049;49.468;11.200;2022-11-10T07:14:12;5.67;;;3.97;;
8007;SDS011;4049;49.468;11.200;2022-11-10T07:16:38;6.03;;;4.23;;
8007;SDS011;4049;49.468;11.200;2022-11-10T07:19:05;8.13;;;4.73;;
8007;SDS011;4049;49.468;11.200;2022-11-10T07:21:32;6.67;;;4.50;;
8007;SDS011;4049;49.468;11.200;2022-11-10T07:23:59;7.37;;;4.77;;
8007;SDS011;4049;49.468;11.200;2022-11-10T07:26:26;9.67;;;5.00;;
8007;SDS011;4049;49.468;11.200;2022-11-10T07:28:54;8.87;;;5.67;;
8007;SDS011;4049;49.468;11.200;2022-11-10T07:31:21;8.47;;;5.77;;
8007;SDS011;4049;49.468;11.200;2022-11-10T07:33:48;10.23;;;5.73;;
8007;SDS011;4049;49.468;11.200;2022-11-10T07:36:15;8.13;;;6.10;;
8007;SDS011;4049;49.468;11.200;2022-11-10T07:38:42;9.30;;;5.77;;
8007;SDS011;4049;49.468;11.200;2022-11-10T07:41:08;10.07;;;6.30;;
8007;SDS011;4049;49.468;11.200;2022-11-10T07:43:35;11.37;;;6.70;;
8007;SDS011;4049;49.468;11.200;2022-11-10T07:46:04;10.87;;;7.00;;
8007;SDS011;4049;49.468;11.200;2022-11-10T07:48:31;8.83;;;6.90;;
8007;SDS011;4049;49.468;11.200;2022-11-10T07:50:57;10.43;;;6.73;;
8007;SDS011;4049;49.468;11.200;2022-11-10T07:53:24;10.87;;;7.13;;
8007;SDS011;4049;49.468;11.200;2022-11-10T07:55:51;11.20;;;6.80;;
8007;SDS011;4049;49.468;11.200;2022-11-10T07:58:19;9.17;;;6.67;;
8007;SDS011;4049;49.468;11.200;2022-11-10T08:00:46;12.23;;;6.73;;
8007;SDS011;4049;49.468;11.200;2022-11-10T08:03:15;13.07;;;6.37;;
8007;SDS011;4049;49.468;11.200;2022-11-10T08:05:43;11.63;;;6.93;;
8007;SDS011;4049;49.468;11.200;2022-11-10T08:08:10;10.10;;;6.10;;
8007;SDS011;4049;49.468;11.200;2022-11-10T08:10:38;10.87;;;6.83;;
8007;SDS011;4049;49.468;11.200;2022-11-10T08:13:07;9.73;;;6.10;;
8007;SDS011;4049;49.468;11.200;2022-11-10T08:15:35;8.80;;;6.50;;
8007;SDS011;4049;49.468;11.200;2022-11-10T08:18:03;12.33;;;7.07;;
8007;SDS011;4049;49.468;11.200;2022-11-10T08:20:33;11.47;;;7.00;;
8007;SDS011;4049;49.468;11.200;2022-11-10T08:23:01;9.43;;;6.03;;
8007;SDS011;4049;49.468;11.200;2022-11-10T08:25:29;14.47;;;6.60;;
8007;SDS011;4049;49.468;11.200;2022-11-10T08:27:58;11.93;;;7.70;;
8007;SDS011;4049;49.468;11.200;2022-11-10T08:30:26;12.23;;;7.50;;
8007;SDS011;4049;49.468;11.200;2022-11-10T08:32:56;12.77;;;7.20;;
8007;SDS011;4049;49.468;11.200;2022-11-10T08:35:24;15.67;;;7.70;;
8007;SDS011;4049;49.468;11.200;2022-11-10T08:37:54;14.27;;;7.43;;
8007;SDS011;4049;49.468;11.200;2022-11-10T08:40:22;12.77;;;7.13;;
8007;SDS011;4049;49.468;11.200;2022-11-10T08:42:57;13.23;;;7.53;;
8007;SDS011;4049;49.468;11.200;2022-11-10T08:45:25;14.77;;;7.37;;
8007;SDS011;4049;49.468;11.200;2022-11-10T08:47:55;13.63;;;7.00;;
8007;SDS011;4049;49.468;11.200;2022-11-10T08:50:23;12.70;;;7.40;;
8007;SDS011;4049;49.468;11.200;2022-11-10T08:52:50;15.47;;;7.67;;
8007;SDS011;4049;49.468;11.200;2022-11-10T08:55:19;14.87;;;7.63;;
8007;SDS011;4049;49.468;11.200;2022-11-10T08:57:46;12.40;;;7.07;;
8007;SDS011;4049;49.468;11.200;2022-11-10T09:00:13;12.17;;;7.13;;
8007;SDS011;4049;49.468;11.200;2022-11-10T09:02:41;11.97;;;7.00;;
8007;SDS011;4049;49.468;11.200;2022-11-10T09:05:08;13.93;;;7.20;;
8007;SDS011;4049;49.468;11.200;2022-11-10T09:07:41;13.70;;;7.73;;
8007;SDS011;4049;49.468;11.200;2022-11-10T09:10:09;11.17;;;7.10;;
8007;SDS011;4049;49.468;11.200;2022-11-10T09:12:38;12.07;;;7.10;;
8007;SDS011;4049;49.468;11.200;2022-11-10T09:15:07;14.33;;;7.83;;
8007;SDS011;4049;49.468;11.200;2022-11-10T09:17:35;16.13;;;7.27;;
8007;SDS011;4049;49.468;11.200;2022-11-10T09:20:03;12.17;;;7.30;;
8007;SDS011;4049;49.468;11.200;2022-11-10T09:22:31;13.73;;;7.50;;
8007;SDS011;4049;49.468;11.200;2022-11-10T09:24:59;14.80;;;7.87;;
8007;SDS011;4049;49.468;11.200;2022-11-10T09:27:26;13.67;;;7.30;;
8007;SDS011;4049;49.468;11.200;2022-11-10T09:29:54;12.77;;;7.47;;
8007;SDS011;4049;49.468;11.200;2022-11-10T09:32:21;18.13;;;8.03;;
8007;SDS011;4049;49.468;11.200;2022-11-10T09:34:48;12.13;;;7.47;;
8007;SDS011;4049;49.468;11.200;2022-11-10T09:37:15;15.60;;;7.73;;
8007;SDS011;4049;49.468;11.200;2022-11-10T09:39:42;9.00;;;7.10;;
8007;SDS011;4049;49.468;11.200;2022-11-10T09:42:17;12.17;;;7.33;;
8007;SDS011;4049;49.468;11.200;2022-11-10T09:44:57;11.20;;;7.07;;
8007;SDS011;4049;49.468;11.200;2022-11-10T09:47:28;12.47;;;7.03;;
8007;SDS011;4049;49.468;11.200;2022-11-10T09:50:02;11.47;;;6.47;;
8007;SDS011;4049;49.468;11.200;2022-11-10T09:52:32;10.70;;;6.27;;
8007;SDS011;4049;49.468;11.200;2022-11-10T09:55:02;9.27;;;6.33;;
8007;SDS011;4049;49.468;11.200;2022-11-10T09:57:31;10.97;;;5.90;;
8007;SDS011;4049;49.468;11.200;2022-11-10T10:00:00;12.47;;;5.80;;
8007;SDS011;4049;49.468;11.200;2022-11-10T10:02:30;10.97;;;5.97;;
8007;SDS011;4049;49.468;11.200;2022-11-10T10:05:17;9.93;;;6.50;;
8007;SDS011;4049;49.468;11.200;2022-11-10T10:07:59;11.03;;;6.40;;
8007;SDS011;4049;49.468;11.200;2022-11-10T10:10:30;8.23;;;5.30;;
8007;SDS011;4049;49.468;11.200;2022-11-10T10:13:05;11.40;;;5.43;;
8007;SDS011;4049;49.468;11.200;2022-11-10T10:15:50;12.53;;;6.83;;
8007;SDS011;4049;49.468;11.200;2022-11-10T10:18:30;8.60;;;5.83;;
8007;SDS011;4049;49.468;11.200;2022-11-10T10:21:15;7.97;;;5.63;;
8007;SDS011;4049;49.468;11.200;2022-11-10T10:23:57;11.07;;;5.50;;
8007;SDS011;4049;49.468;11.200;2022-11-10T10:26:27;11.47;;;6.60;;
8007;SDS011;4049;49.468;11.200;2022-11-10T10:28:55;9.57;;;5.47;;
8007;SDS011;4049;49.468;11.200;2022-11-10T10:31:38;8.57;;;5.47;;
8007;SDS011;4049;49.468;11.200;2022-11-10T10:34:10;8.07;;;5.27;;
8007;SDS011;4049;49.468;11.200;2022-11-10T10:36:39;8.77;;;5.40;;
8007;SDS011;4049;49.468;11.200;2022-11-10T10:39:09;9.80;;;5.70;;
8007;SDS011;4049;49.468;11.200;2022-11-10T10:41:39;7.63;;;5.60;;
8007;SDS011;4049;49.468;11.200;2022-11-10T10:44:10;10.43;;;5.60;;
8007;SDS011;4049;49.468;11.200;2022-11-10T10:46:43;10.47;;;6.07;;
8007;SDS011;4049;49.468;11.200;2022-11-10T10:49:14;9.33;;;4.47;;
8007;SDS011;4049;49.468;11.200;2022-11-10T10:51:43;7.93;;;4.73;;
8007;SDS011;4049;49.468;11.200;2022-11-10T10:54:26;8.07;;;4.40;;
8007;SDS011;4049;49.468;11.200;2022-11-10T10:57:01;10.77;;;4.80;;
8007;SDS011;4049;49.468;11.200;2022-11-10T10:59:30;8.43;;;4.57;;
8007;SDS011;4049;49.468;11.200;2022-11-10T11:01:59;9.27;;;5.13;;
8007;SDS011;4049;49.468;11.200;2022-11-10T11:04:30;7.00;;;4.27;;
8007;SDS011;4049;49.468;11.200;2022-11-10T11:06:59;8.17;;;4.60;;
8007;SDS011;4049;49.468;11.200;2022-11-10T11:09:28;9.97;;;4.77;;
8007;SDS011;4049;49.468;11.200;2022-11-10T11:12:04;6.27;;;4.73;;
8007;SDS011;4049;49.468;11.200;2022-11-10T11:14:33;10.23;;;5.17;;
8007;SDS011;4049;49.468;11.200;2022-11-10T11:17:02;10.47;;;4.60;;
8007;SDS011;4049;49.468;11.200;2022-11-10T11:19:37;8.23;;;4.10;;
8007;SDS011;4049;49.468;11.200;2022-11-10T11:22:10;7.27;;;4.63;;
8007;SDS011;4049;49.468;11.200;2022-11-10T11:25:00;6.67;;;4.40;;
8007;SDS011;4049;49.468;11.200;2022-11-10T11:27:37;5.70;;;4.10;;
8007;SDS011;4049;49.468;11.200;2022-11-10T11:30:09;8.03;;;3.80;;
8007;SDS011;4049;49.468;11.200;2022-11-10T11:35:43;6.33;;;4.10;;
8007;SDS011;4049;49.468;11.200;2022-11-10T11:38:15;8.97;;;4.03;;
8007;SDS011;4049;49.468;11.200;2022-11-10T11:40:49;9.13;;;4.40;;
8007;SDS011;4049;49.468;11.200;2022-11-10T11:46:13;8.07;;;3.83;;
8007;SDS011;4049;49.468;11.200;2022-11-10T11:48:50;13.20;;;3.80;;
8007;SDS011;4049;49.468;11.200;2022-11-10T11:51:26;8.80;;;3.70;;
8007;SDS011;4049;49.468;11.200;2022-11-10T11:57:12;7.93;;;3.80;;
8007;SDS011;4049;49.468;11.200;2022-11-10T11:59:58;9.63;;;3.60;;
8007;SDS011;4049;49.468;11.200;2022-11-10T12:05:35;6.47;;;3.70;;
8007;SDS011;4049;49.468;11.200;2022-11-10T12:08:11;7.67;;;3.60;;
8007;SDS011;4049;49.468;11.200;2022-11-10T12:10:49;6.53;;;3.30;;
8007;SDS011;4049;49.468;11.200;2022-11-10T12:13:24;5.30;;;2.97;;
8007;SDS011;4049;49.468;11.200;2022-11-10T12:16:04;7.23;;;2.80;;
8007;SDS011;4049;49.468;11.200;2022-11-10T12:18:39;3.90;;;2.50;;
8007;SDS011;4049;49.468;11.200;2022-11-10T12:21:16;4.77;;;3.00;;
8007;SDS011;4049;49.468;11.200;2022-11-10T12:24:03;4.87;;;2.60;;
8007;SDS011;4049;49.468;11.200;2022-11-10T12:26:46;5.57;;;2.93;;
8007;SDS011;4049;49.468;11.200;2022-11-10T12:29:21;3.80;;;2.90;;
8007;SDS011;4049;49.468;11.200;2022-11-10T12:31:53;6.03;;;2.80;;
8007;SDS011;4049;49.468;11.200;2022-11-10T12:34:27;8.90;;;3.07;;
8007;SDS011;4049;49.468;11.200;2022-11-10T12:37:00;8.07;;;2.77;;
8007;SDS011;4049;49.468;11.200;2022-11-10T12:39:33;8.50;;;3.30;;
8007;SDS011;4049;49.468;11.200;2022-11-10T12:42:07;2.83;;;2.20;;
8007;SDS011;4049;49.468;11.200;2022-11-10T12:44:42;5.17;;;2.67;;
8007;SDS011;4049;49.468;11.200;2022-11-10T12:47:34;3.47;;;2.57;;
8007;SDS011;4049;49.468;11.200;2022-11-10T12:50:17;4.57;;;2.63;;
8007;SDS011;4049;49.468;11.200;2022-11-10T12:52:52;7.10;;;2.80;;
8007;SDS011;4049;49.468;11.200;2022-11-10T12:55:26;4.10;;;2.67;;
8007;SDS011;4049;49.468;11.200;2022-11-10T12:57:58;3.60;;;2.50;;
8007;SDS011;4049;49.468;11.200;2022-11-10T13:00:26;3.70;;;2.60;;
8007;SDS011;4049;49.468;11.200;2022-11-10T13:02:55;6.03;;;2.27;;
8007;SDS011;4049;49.468;11.200;2022-11-10T13:05:27;2.63;;;2.27;;
8007;SDS011;4049;49.468;11.200;2022-11-10T13:08:11;4.20;;;2.30;;
8007;SDS011;4049;49.468;11.200;2022-11-10T13:10:47;4.00;;;2.17;;
8007;SDS011;4049;49.468;11.200;2022-11-10T13:13:17;6.10;;;1.90;;
8007;SDS011;4049;49.468;11.200;2022-11-10T13:15:45;3.30;;;1.63;;
8007;SDS011;4049;49.468;11.200;2022-11-10T13:18:21;6.03;;;2.00;;
8007;SDS011;4049;49.468;11.200;2022-11-10T13:21:07;2.57;;;1.40;;
8007;SDS011;4049;49.468;11.200;2022-11-10T13:26:49;7.23;;;2.03;;
8007;SDS011;4049;49.468;11.200;2022-11-10T13:29:26;2.23;;;1.87;;
8007;SDS011;4049;49.468;11.200;2022-11-10T13:31:56;3.57;;;1.77;;
8007;SDS011;4049;49.468;11.200;2022-11-10T13:34:31;3.67;;;1.70;;
8007;SDS011;4049;49.468;11.200;2022-11-10T13:36:58;3.77;;;1.83;;
8007;SDS011;4049;49.468;11.200;2022-11-10T13:39:27;4.80;;;1.80;;
8007;SDS011;4049;49.468;11.200;2022-11-10T13:42:01;4.27;;;2.07;;
8007;SDS011;4049;49.468;11.200;2022-11-10T13:44:41;3.73;;;1.83;;
8007;SDS011;4049;49.468;11.200;2022-11-10T13:47:23;5.77;;;2.20;;
8007;SDS011;4049;49.468;11.200;2022-11-10T13:50:12;4.97;;;1.77;;
8007;SDS011;4049;49.468;11.200;2022-11-10T13:52:51;5.53;;;2.17;;
8007;SDS011;4049;49.468;11.200;2022-11-10T13:55:30;8.07;;;3.90;;
8007;SDS011;4049;49.468;11.200;2022-11-10T13:58:08;5.43;;;3.30;;
8007;SDS011;4049;49.468;11.200;2022-11-10T14:00:43;7.37;;;3.10;;
8007;SDS011;4049;49.468;11.200;2022-11-10T14:06:20;2.67;;;2.07;;
8007;SDS011;4049;49.468;11.200;2022-11-10T14:08:49;5.30;;;2.30;;
8007;SDS011;4049;49.468;11.200;2022-11-10T14:11:21;4.43;;;1.70;;
8007;SDS011;4049;49.468;11.200;2022-11-10T14:13:58;5.13;;;1.83;;
8007;SDS011;4049;49.468;11.200;2022-11-10T14:16:29;4.17;;;1.93;;
8007;SDS011;4049;49.468;11.200;2022-11-10T14:18:58;5.23;;;2.07;;
8007;SDS011;4049;49.468;11.200;2022-11-10T14:21:31;6.00;;;1.80;;
8007;SDS011;4049;49.468;11.200;2022-11-10T14:24:13;3.20;;;1.60;;
8007;SDS011;4049;49.468;11.200;2022-11-10T14:26:46;3.63;;;1.50;;
8007;SDS011;4049;49.468;11.200;2022-11-10T14:29:20;2.20;;;1.40;;
8007;SDS011;4049;49.468;11.200;2022-11-10T14:31:55;3.37;;;1.40;;
8007;SDS011;4049;49.468;11.200;2022-11-10T14:34:24;1.47;;;1.10;;
8007;SDS011;4049;49.468;11.200;2022-11-10T14:36:52;4.87;;;1.70;;
8007;SDS011;4049;49.468;11.200;2022-11-10T14:39:22;4.63;;;1.90;;
8007;SDS011;4049;49.468;11.200;2022-11-10T14:41:52;3.27;;;2.03;;
8007;SDS011;4049;49.468;11.200;2022-11-10T14:44:23;4.90;;;1.70;;
8007;SDS011;4049;49.468;11.200;2022-11-10T14:46:52;3.53;;;1.87;;
8007;SDS011;4049;49.468;11.200;2022-11-10T14:49:20;4.63;;;2.03;;
8007;SDS011;4049;49.468;11.200;2022-11-10T14:51:48;5.77;;;1.80;;
8007;SDS011;4049;49.468;11.200;2022-11-10T14:54:17;4.37;;;1.90;;
8007;SDS011;4049;49.468;11.200;2022-11-10T14:56:48;3.07;;;1.60;;
8007;SDS011;4049;49.468;11.200;2022-11-10T14:59:15;4.77;;;1.70;;
8007;SDS011;4049;49.468;11.200;2022-11-10T15:01:48;4.97;;;2.00;;
8007;SDS011;4049;49.468;11.200;2022-11-10T15:04:19;4.97;;;1.60;;
8007;SDS011;4049;49.468;11.200;2022-11-10T15:06:51;3.10;;;1.50;;
8007;SDS011;4049;49.468;11.200;2022-11-10T15:09:22;3.73;;;1.57;;
8007;SDS011;4049;49.468;11.200;2022-11-10T15:11:52;5.40;;;2.50;;
8007;SDS011;4049;49.468;11.200;2022-11-10T15:14:31;8.40;;;3.00;;
8007;SDS011;4049;49.468;11.200;2022-11-10T15:17:04;5.50;;;2.27;;
8007;SDS011;4049;49.468;11.200;2022-11-10T15:19:34;4.13;;;2.20;;
8007;SDS011;4049;49.468;11.200;2022-11-10T15:22:06;5.67;;;1.93;;
8007;SDS011;4049;49.468;11.200;2022-11-10T15:24:40;3.30;;;2.00;;
8007;SDS011;4049;49.468;11.200;2022-11-10T15:27:12;2.53;;;1.93;;
8007;SDS011;4049;49.468;11.200;2022-11-10T15:29:47;5.70;;;2.80;;
8007;SDS011;4049;49.468;11.200;2022-11-10T15:32:17;3.73;;;2.67;;
8007;SDS011;4049;49.468;11.200;2022-11-10T15:34:47;5.00;;;2.60;;
8007;SDS011;4049;49.468;11.200;2022-11-10T15:37:20;5.47;;;3.40;;
8007;SDS011;4049;49.468;11.200;2022-11-10T15:39:49;7.87;;;3.70;;